createdAt,value
2018-09-02T00:00:33.912Z,86.16
2018-09-02T00:03:04.445Z,87.23
2018-09-02T00:05:33.654Z,87.97
2018-09-02T00:08:02.768Z,87.36
2018-09-02T00:10:34.029Z,87.82
2018-09-02T00:13:05.026Z,87.98
2018-09-02T00:15:34.479Z,88.25
2018-09-02T00:18:04.252Z,87.35
2018-09-02T00:20:33.993Z,85.32
2018-09-02T00:23:03.079Z,89.30
2018-09-02T00:25:32.395Z,91.23
2018-09-02T00:28:02.821Z,92.66
2018-09-02T00:30:31.798Z,92.32
2018-09-02T00:33:00.760Z,91.51
2018-09-02T00:35:29.776Z,91.21
2018-09-02T00:37:59.182Z,90.59
2018-09-02T00:40:28.130Z,92.70
2018-09-02T00:42:57.072Z,93.64
2018-09-02T00:45:26.142Z,96.22
2018-09-02T00:47:55.095Z,98.03
2018-09-02T00:50:24.028Z,98.37
2018-09-02T00:52:53.089Z,98.40
2018-09-02T00:55:22.185Z,98.98
2018-09-02T00:57:59.920Z,99.87
2018-09-02T01:00:28.895Z,98.99
2018-09-02T01:02:57.860Z,99.27
2018-09-02T01:05:27.195Z,99.66
2018-09-02T01:07:57.702Z,100.00
2018-09-02T01:10:28.762Z,99.82
2018-09-02T01:12:58.544Z,99.42
2018-09-02T01:15:28.547Z,99.25
2018-09-02T01:17:58.271Z,96.06
2018-09-02T01:20:28.789Z,94.29
2018-09-02T01:25:51.137Z,94.85
2018-09-02T01:28:20.081Z,95.49
2018-09-02T01:30:49.016Z,95.20
2018-09-02T01:33:18.019Z,96.19
2018-09-02T01:35:47.191Z,97.13
2018-09-02T01:38:25.719Z,96.54
2018-09-02T01:40:56.347Z,95.39
2018-09-02T01:43:27.067Z,95.28
2018-09-02T01:45:56.173Z,94.63
2018-09-02T01:48:25.148Z,94.25
2018-09-02T01:50:54.096Z,94.55
2018-09-02T01:53:23.111Z,94.48
2018-09-02T01:55:52.173Z,94.35
2018-09-02T01:58:21.172Z,94.09
2018-09-02T02:00:53.538Z,92.29
2018-09-02T02:20:22.143Z,100.00
2018-09-02T02:22:51.183Z,100.00
2018-09-02T02:25:20.121Z,100.00
2018-09-02T02:27:49.088Z,100.00
2018-09-02T02:30:18.359Z,100.00
2018-09-02T02:32:47.618Z,100.00
2018-09-02T02:35:19.487Z,100.00
2018-09-02T02:37:48.611Z,100.00
2018-09-02T02:40:19.779Z,100.00
2018-09-02T02:42:48.885Z,100.00
2018-09-02T02:45:20.138Z,100.00
2018-09-02T02:47:52.131Z,100.00
2018-09-02T02:50:21.081Z,100.00
2018-09-02T02:52:55.015Z,100.00
2018-09-02T02:55:24.839Z,100.00
2018-09-02T02:58:04.491Z,100.00
2018-09-02T03:00:34.447Z,100.00
2018-09-02T03:03:05.373Z,100.00
2018-09-02T03:05:34.955Z,100.00
2018-09-02T03:08:11.383Z,100.00
2018-09-02T03:10:42.600Z,100.00
2018-09-02T03:13:13.534Z,100.00
2018-09-02T03:15:47.938Z,100.00
2018-09-02T03:18:17.054Z,100.00
2018-09-02T03:20:46.992Z,100.00
2018-09-02T03:23:17.089Z,100.00
2018-09-02T03:25:46.296Z,100.00
2018-09-02T03:28:15.285Z,100.00
2018-09-02T03:30:44.353Z,100.00
2018-09-02T03:33:13.299Z,100.00
2018-09-02T03:35:46.364Z,100.00
2018-09-02T03:38:15.336Z,100.00
2018-09-02T03:40:44.427Z,100.00
2018-09-02T03:43:13.412Z,100.00
2018-09-02T03:45:42.556Z,100.00
2018-09-02T03:48:11.559Z,100.00
2018-09-02T03:50:41.172Z,100.00
2018-09-02T03:53:10.345Z,100.00
2018-09-02T03:55:39.711Z,100.00
2018-09-02T03:58:08.686Z,100.00
2018-09-02T04:00:37.744Z,100.00
2018-09-02T04:16:59.699Z,100.00
2018-09-02T04:19:28.602Z,100.00
2018-09-02T04:21:57.478Z,100.00
2018-09-02T04:24:26.493Z,100.00
2018-09-02T04:26:55.764Z,100.00
2018-09-02T04:29:24.699Z,100.00
2018-09-02T04:31:53.629Z,100.00
2018-09-02T04:34:29.341Z,100.00
2018-09-02T04:36:58.394Z,100.00
2018-09-02T04:39:27.339Z,100.00
2018-09-02T04:41:56.391Z,100.00
2018-09-02T04:44:25.450Z,100.00
2018-09-02T04:46:55.067Z,100.00
2018-09-02T04:49:25.070Z,100.00
2018-09-02T04:51:54.112Z,100.00
2018-09-02T04:54:23.169Z,100.00
2018-09-02T04:56:52.083Z,100.00
2018-09-02T04:59:21.139Z,100.00
2018-09-02T05:01:50.160Z,100.00
2018-09-02T05:04:19.086Z,100.00
2018-09-02T05:06:49.162Z,100.00
2018-09-02T05:09:18.540Z,100.00
2018-09-02T05:11:47.664Z,100.00
2018-09-02T05:14:16.713Z,100.00
2018-09-02T05:16:48.160Z,100.00
2018-09-02T05:19:17.147Z,100.00
2018-09-02T05:21:46.247Z,100.00
2018-09-02T05:24:15.463Z,100.00
2018-09-02T05:26:44.423Z,95.97
2018-09-02T05:29:13.407Z,94.01
2018-09-02T05:31:42.363Z,91.58
2018-09-02T05:34:11.363Z,93.31
2018-09-02T05:36:40.408Z,90.79
2018-09-02T05:39:10.803Z,89.74
2018-09-02T05:41:40.082Z,89.61
2018-09-02T05:44:10.160Z,90.67
2018-09-02T05:46:39.726Z,91.49
2018-09-02T05:49:08.998Z,93.12
2018-09-02T05:51:37.949Z,93.73
2018-09-02T05:54:06.488Z,93.81
2018-09-02T05:56:35.513Z,93.79
2018-09-02T05:59:04.531Z,92.87
2018-09-02T06:01:33.538Z,90.41
2018-09-02T06:04:02.655Z,90.83
2018-09-02T06:06:31.691Z,89.43
2018-09-02T06:09:00.749Z,91.21
2018-09-02T06:11:29.757Z,87.15
2018-09-02T06:13:58.702Z,84.65
2018-09-02T06:16:28.800Z,83.11
2018-09-02T06:18:57.836Z,83.78
2018-09-02T06:21:27.031Z,83.07
2018-09-02T06:23:57.512Z,79.55
2018-09-02T06:26:26.582Z,75.95
2018-09-02T06:28:55.651Z,74.48
2018-09-02T06:31:24.963Z,73.87
2018-09-02T06:33:54.057Z,75.30
2018-09-02T06:36:24.743Z,75.73
2018-09-02T06:38:53.698Z,73.58
2018-09-02T06:41:22.678Z,72.97
2018-09-02T06:43:51.639Z,72.09
2018-09-02T06:46:23.545Z,69.58
2018-09-02T06:48:53.082Z,68.45
2018-09-02T06:51:22.021Z,70.07
2018-09-02T06:53:50.982Z,67.75
2018-09-02T06:56:19.942Z,70.04
2018-09-02T06:58:49.054Z,69.79
2018-09-02T07:01:19.275Z,72.59
2018-09-02T07:03:48.399Z,72.43
2018-09-02T07:06:17.406Z,74.06
2018-09-02T07:08:46.524Z,73.77
2018-09-02T07:11:15.523Z,76.26
2018-09-02T07:13:44.550Z,74.52
2018-09-02T07:16:13.577Z,76.05
2018-09-02T07:18:42.502Z,75.51
2018-09-02T07:21:11.537Z,75.54
2018-09-02T07:23:40.504Z,74.35
2018-09-02T07:26:10.182Z,71.72
2018-09-02T07:28:39.972Z,73.55
2018-09-02T07:31:22.443Z,73.28
2018-09-02T07:33:51.811Z,71.38
2018-09-02T07:36:20.980Z,70.03
2018-09-02T07:38:50.056Z,69.08
2018-09-02T07:41:19.263Z,69.23
2018-09-02T07:43:48.515Z,67.98
2018-09-02T07:46:17.561Z,65.95
2018-09-02T07:48:46.713Z,66.51
2018-09-02T07:51:16.946Z,66.26
2018-09-02T07:53:45.900Z,67.74
2018-09-02T07:56:15.205Z,67.35
2018-09-02T07:58:44.374Z,63.79
2018-09-02T08:01:13.365Z,62.60
2018-09-02T08:03:42.644Z,63.04
2018-09-02T08:06:11.669Z,61.20
2018-09-02T08:08:40.754Z,62.95
2018-09-02T08:11:09.788Z,64.54
2018-09-02T08:13:38.804Z,69.70
2018-09-02T08:16:08.977Z,68.41
2018-09-02T08:18:38.356Z,72.08
2018-09-02T08:21:09.600Z,72.06
2018-09-02T08:24:00.976Z,69.89
2018-09-02T08:26:29.901Z,68.40
2018-09-02T08:28:58.974Z,71.95
2018-09-02T08:31:30.538Z,67.40
2018-09-02T08:55:26.740Z,53.10
2018-09-02T08:57:55.749Z,55.54
2018-09-02T09:00:24.848Z,55.90
2018-09-02T09:02:54.478Z,59.54
2018-09-02T09:05:23.440Z,62.42
2018-09-02T09:07:52.668Z,60.78
2018-09-02T09:10:21.515Z,57.84
2018-09-02T09:12:50.411Z,58.65
2018-09-02T09:15:20.278Z,62.12
2018-09-02T09:17:49.216Z,62.33
2018-09-02T09:20:21.071Z,60.49
2018-09-02T09:22:50.101Z,59.40
2018-09-02T09:25:19.498Z,62.00
2018-09-02T09:27:48.491Z,60.90
2018-09-02T09:30:17.493Z,56.84
2018-09-02T09:32:46.401Z,58.44
2018-09-02T09:35:18.582Z,60.29
2018-09-02T09:37:47.844Z,57.65
2018-09-02T09:40:19.807Z,59.52
2018-09-02T09:42:48.749Z,60.45
2018-09-02T09:45:17.669Z,62.34
2018-09-02T09:47:46.629Z,65.89
2018-09-02T09:50:15.582Z,66.41
2018-09-02T09:53:00.019Z,67.66
2018-09-02T09:55:29.115Z,67.18
2018-09-02T09:57:58.491Z,66.08
2018-09-02T10:00:32.840Z,65.44
2018-09-02T10:03:03.309Z,63.71
2018-09-02T10:05:32.480Z,66.44
2018-09-02T10:08:01.581Z,62.47
2018-09-02T10:10:30.735Z,66.03
2018-09-02T10:12:59.934Z,64.83
2018-09-02T10:15:29.023Z,62.95
2018-09-02T10:17:58.305Z,63.48
2018-09-02T10:20:27.340Z,65.17
2018-09-02T10:22:56.706Z,63.05
2018-09-02T10:25:25.821Z,64.88
2018-09-02T10:27:55.012Z,63.48
2018-09-02T10:30:24.092Z,63.87
2018-09-02T10:32:53.108Z,65.21
2018-09-02T10:35:22.702Z,65.25
2018-09-02T10:37:52.844Z,66.49
2018-09-02T10:40:25.699Z,68.53
2018-09-02T10:42:54.633Z,65.56
2018-09-02T10:45:23.654Z,64.95
2018-09-02T10:47:53.589Z,66.08
2018-09-02T10:50:22.610Z,67.36
2018-09-02T10:52:53.274Z,66.13
2018-09-02T10:55:22.371Z,64.63
2018-09-02T10:57:52.002Z,64.89
2018-09-02T11:00:23.904Z,67.58
2018-09-02T11:02:52.813Z,68.62
2018-09-02T11:05:24.476Z,71.42
2018-09-02T11:07:53.572Z,72.69
2018-09-02T11:10:23.502Z,75.59
2018-09-02T11:12:52.451Z,76.69
2018-09-02T11:15:21.924Z,77.33
2018-09-02T11:17:51.618Z,76.80
2018-09-02T11:20:21.265Z,75.52
2018-09-02T11:22:50.692Z,76.91
2018-09-02T11:25:20.298Z,71.61
2018-09-02T11:27:49.792Z,75.53
2018-09-02T11:30:20.948Z,77.25
2018-09-02T11:32:50.687Z,80.64
2018-09-02T11:35:20.999Z,81.50
2018-09-02T11:37:50.439Z,82.14
2018-09-02T11:40:21.582Z,81.34
2018-09-02T11:42:51.175Z,82.12
2018-09-02T11:45:20.781Z,84.13
2018-09-02T11:47:50.462Z,88.39
2018-09-02T11:50:19.716Z,91.30
2018-09-02T11:52:49.096Z,92.98
2018-09-02T11:55:20.296Z,94.82
2018-09-02T11:57:50.090Z,93.35
2018-09-02T12:00:21.297Z,93.25
2018-09-02T12:02:51.045Z,94.36
2018-09-02T12:05:21.643Z,95.00
2018-09-02T12:07:51.544Z,96.38
2018-09-02T12:10:21.890Z,99.05
2018-09-02T12:12:51.081Z,100.00
2018-09-02T12:15:21.491Z,100.00
2018-09-02T12:17:51.431Z,100.00
2018-09-02T12:20:22.607Z,100.00
2018-09-02T12:22:52.397Z,99.27
2018-09-02T12:25:28.678Z,100.00
2018-09-02T12:27:57.863Z,99.72
2018-09-02T12:30:26.899Z,100.00
2018-09-02T12:32:56.103Z,100.00
2018-09-02T12:35:25.087Z,100.00
2018-09-02T12:37:54.427Z,100.00
2018-09-02T12:40:23.366Z,100.00
2018-09-02T12:42:53.367Z,100.00
2018-09-02T12:45:23.003Z,100.00
2018-09-02T12:47:52.102Z,100.00
2018-09-02T12:50:21.075Z,100.00
2018-09-02T12:52:50.121Z,100.00
2018-09-02T12:55:19.732Z,100.00
2018-09-02T12:57:48.729Z,100.00
2018-09-02T13:00:20.420Z,100.00
2018-09-02T13:02:49.428Z,100.00
2018-09-02T13:05:19.269Z,100.00
2018-09-02T13:07:48.396Z,99.97
2018-09-02T13:10:20.927Z,98.80
2018-09-02T13:12:50.775Z,98.47
2018-09-02T13:15:19.754Z,100.00
2018-09-02T13:17:48.792Z,100.00
2018-09-02T13:20:19.607Z,100.00
2018-09-02T13:22:48.646Z,98.28
2018-09-02T13:25:18.355Z,97.40
2018-09-02T13:27:47.285Z,98.58
2018-09-02T13:30:18.420Z,98.70
2018-09-02T13:32:48.351Z,99.21
2018-09-02T13:35:19.031Z,99.25
2018-09-02T13:37:47.957Z,100.00
2018-09-02T13:40:19.209Z,100.00
2018-09-02T13:42:48.452Z,100.00
2018-09-02T13:45:17.554Z,100.00
2018-09-02T13:47:46.544Z,100.00
2018-09-02T13:50:16.505Z,100.00
2018-09-02T13:52:46.617Z,100.00
2018-09-02T13:55:17.587Z,100.00
2018-09-02T13:57:48.235Z,100.00
2018-09-02T14:00:20.651Z,100.00
2018-09-02T14:02:49.601Z,100.00
2018-09-02T14:05:21.879Z,100.00
2018-09-02T14:07:52.544Z,100.00
2018-09-02T14:10:23.261Z,100.00
2018-09-02T14:12:52.327Z,100.00
2018-09-02T14:15:23.153Z,98.85
2018-09-02T14:17:52.254Z,94.87
2018-09-02T14:20:24.692Z,92.07
2018-09-02T14:22:57.088Z,95.66
2018-09-02T14:25:27.947Z,92.29
2018-09-02T14:27:59.410Z,91.81
2018-09-02T14:30:28.620Z,91.62
2018-09-02T14:32:58.010Z,90.12
2018-09-02T14:35:33.930Z,90.11
2018-09-02T14:38:03.523Z,88.92
2018-09-02T14:40:35.092Z,89.35
2018-09-02T14:43:04.484Z,85.87
2018-09-02T14:45:34.990Z,85.32
2018-09-02T14:48:04.291Z,83.74
2018-09-02T14:50:34.559Z,85.83
2018-09-02T14:53:07.544Z,81.28
2018-09-02T14:55:36.629Z,80.51
2018-09-02T14:58:06.894Z,83.79
2018-09-02T15:00:36.574Z,82.72
2018-09-02T15:03:06.224Z,83.32
2018-09-02T15:08:46.135Z,86.07
2018-09-02T15:11:15.299Z,81.70
2018-09-02T15:13:44.995Z,80.53
2018-09-02T15:16:14.365Z,81.97
2018-09-02T15:18:43.997Z,81.29
2018-09-02T15:21:14.003Z,81.52
2018-09-02T15:23:43.509Z,82.96
2018-09-02T15:26:12.947Z,82.62
2018-09-02T15:28:42.237Z,81.98
2018-09-02T15:31:11.596Z,80.94
2018-09-02T15:33:40.748Z,84.70
2018-09-02T15:36:09.944Z,86.07
2018-09-02T15:38:40.009Z,88.10
2018-09-02T15:41:09.019Z,88.09
2018-09-02T15:43:37.997Z,87.07
2018-09-02T15:46:07.230Z,87.33
2018-09-02T15:48:36.330Z,88.14
2018-09-02T15:51:05.459Z,88.11
2018-09-02T15:53:37.923Z,87.98
2018-09-02T15:56:07.400Z,88.75
2018-09-02T15:58:36.466Z,87.61
2018-09-02T16:01:05.902Z,88.97
2018-09-02T16:03:34.914Z,90.76
2018-09-02T16:06:03.916Z,92.50
2018-09-02T16:08:32.831Z,92.36
2018-09-02T16:11:01.998Z,91.48
2018-09-02T16:13:31.003Z,91.24
2018-09-02T16:16:00.830Z,88.93
2018-09-02T16:18:29.797Z,88.95
2018-09-02T16:20:58.855Z,89.05
2018-09-02T16:23:27.800Z,89.58
2018-09-02T16:25:56.987Z,89.28
2018-09-02T16:28:26.026Z,90.31
2018-09-02T16:31:01.087Z,90.08
2018-09-02T16:33:30.042Z,91.22
2018-09-02T16:35:59.144Z,89.72
2018-09-02T16:38:28.063Z,87.65
2018-09-02T16:40:57.256Z,84.94
2018-09-02T16:43:26.180Z,86.06
2018-09-02T16:45:55.145Z,86.77
2018-09-02T16:48:25.243Z,87.58
2018-09-02T16:50:54.196Z,89.19
2018-09-02T16:53:23.157Z,90.44
2018-09-02T16:55:52.278Z,93.12
2018-09-02T16:58:22.388Z,93.47
2018-09-02T17:00:51.377Z,95.12
2018-09-02T17:03:21.234Z,95.04
2018-09-02T17:05:51.130Z,94.70
2018-09-02T17:08:20.563Z,94.94
2018-09-02T17:10:50.052Z,95.62
2018-09-02T17:13:19.245Z,96.97
2018-09-02T17:15:48.210Z,96.85
2018-09-02T17:18:17.278Z,94.50
2018-09-02T17:20:49.279Z,89.99
2018-09-02T17:23:18.577Z,88.52
2018-09-02T17:25:48.207Z,89.24
2018-09-02T17:28:17.620Z,89.98
2018-09-02T17:30:47.063Z,92.59
2018-09-02T17:33:16.906Z,86.80
2018-09-02T17:35:46.467Z,85.67
2018-09-02T17:38:15.823Z,81.73
2018-09-02T17:40:45.119Z,83.16
2018-09-02T17:43:14.566Z,83.88
2018-09-02T17:45:44.707Z,83.39
2018-09-02T17:48:13.817Z,85.47
2018-09-02T17:50:43.008Z,86.12
2018-09-02T17:53:11.996Z,87.57
2018-09-02T17:55:40.947Z,89.42
2018-09-02T17:58:09.924Z,90.58
2018-09-02T18:00:47.581Z,92.32
2018-09-02T18:03:16.818Z,95.19
2018-09-02T18:05:46.111Z,94.36
2018-09-02T18:08:15.506Z,91.50
2018-09-02T18:10:51.480Z,89.06
2018-09-02T18:13:20.431Z,91.26
2018-09-02T18:15:49.445Z,91.81
2018-09-02T18:18:18.404Z,85.63
2018-09-02T18:20:47.871Z,84.31
2018-09-02T18:23:17.235Z,86.79
2018-09-02T18:25:46.867Z,90.33
2018-09-02T18:28:20.782Z,92.16
2018-09-02T18:30:50.186Z,92.16
2018-09-02T18:33:19.238Z,92.50
2018-09-02T18:35:48.303Z,92.85
2018-09-02T18:38:17.391Z,94.82
2018-09-02T18:40:48.220Z,96.06
2018-09-02T18:43:20.608Z,93.06
2018-09-02T18:45:50.721Z,88.35
2018-09-02T18:48:20.059Z,86.77
2018-09-02T18:50:49.386Z,87.61
2018-09-02T18:53:18.578Z,87.36
2018-09-02T18:55:47.731Z,88.92
2018-09-02T18:58:17.124Z,88.83
2018-09-02T19:00:46.309Z,89.14
2018-09-02T19:03:15.724Z,90.28
2018-09-02T19:05:44.984Z,91.32
2018-09-02T19:08:14.754Z,91.79
2018-09-02T19:10:43.978Z,95.07
2018-09-02T19:13:13.095Z,96.33
2018-09-02T19:15:42.137Z,98.71
2018-09-02T19:18:11.617Z,100.00
2018-09-02T19:20:41.208Z,100.00
2018-09-02T19:23:10.586Z,100.00
2018-09-02T19:25:39.804Z,99.90
2018-09-02T19:28:09.172Z,97.47
2018-09-02T19:30:38.526Z,96.57
2018-09-02T19:33:07.829Z,98.47
2018-09-02T19:35:37.153Z,99.28
2018-09-02T19:38:06.380Z,100.00
2018-09-02T19:40:35.754Z,100.00
2018-09-02T19:43:05.807Z,99.55
2018-09-02T19:45:35.943Z,98.08
2018-09-02T19:48:05.257Z,97.29
2018-09-02T19:50:37.249Z,95.57
2018-09-02T19:53:06.577Z,95.59
2018-09-02T19:55:36.820Z,92.69
2018-09-02T19:58:07.760Z,92.99
2018-09-02T20:00:37.176Z,95.09
2018-09-02T20:03:06.544Z,96.86
2018-09-02T20:05:36.693Z,96.29
2018-09-02T20:08:06.128Z,96.76
2018-09-02T20:10:35.622Z,100.00
2018-09-02T20:13:04.926Z,100.00
2018-09-02T20:15:34.231Z,100.00
2018-09-02T20:18:03.407Z,100.00
2018-09-02T20:20:32.789Z,100.00
2018-09-02T20:23:04.925Z,100.00
2018-09-02T20:25:34.174Z,100.00
2018-09-02T20:28:04.199Z,100.00
2018-09-02T20:30:33.267Z,100.00
2018-09-02T20:33:03.138Z,99.67
2018-09-02T20:35:32.215Z,99.50
2018-09-02T20:38:01.219Z,100.00
2018-09-02T20:40:31.720Z,100.00
2018-09-02T20:43:01.916Z,100.00
2018-09-02T20:45:31.256Z,100.00
2018-09-02T20:48:01.512Z,100.00
2018-09-02T20:50:30.679Z,100.00
2018-09-02T20:52:59.892Z,100.00
2018-09-02T20:55:29.128Z,100.00
2018-09-02T20:57:58.399Z,100.00
2018-09-02T21:00:27.747Z,100.00
2018-09-02T21:02:56.989Z,100.00
2018-09-02T21:05:26.255Z,100.00
2018-09-02T21:07:55.351Z,100.00
2018-09-02T21:10:24.449Z,100.00
2018-09-02T21:12:53.779Z,100.00
2018-09-02T21:15:23.536Z,100.00
2018-09-02T21:17:52.615Z,100.00
2018-09-02T21:20:22.917Z,100.00
2018-09-02T21:22:51.984Z,100.00
2018-09-02T21:25:20.963Z,100.00
2018-09-02T21:27:50.101Z,100.00
2018-09-02T21:30:21.560Z,100.00
2018-09-02T21:32:50.717Z,100.00
2018-09-02T21:35:21.858Z,100.00
2018-09-02T21:37:50.890Z,100.00
2018-09-02T21:40:22.083Z,100.00
2018-09-02T21:42:51.203Z,100.00
2018-09-02T21:45:23.157Z,100.00
2018-09-02T21:47:52.443Z,100.00
2018-09-02T21:50:22.923Z,100.00
2018-09-02T21:52:59.495Z,100.00
2018-09-02T21:55:28.700Z,100.00
2018-09-02T21:57:58.113Z,100.00
2018-09-02T22:00:42.813Z,100.00
2018-09-02T22:03:14.175Z,100.00
2018-09-02T22:05:44.507Z,100.00
2018-09-02T22:08:13.880Z,100.00
2018-09-02T22:10:43.260Z,100.00
2018-09-02T22:13:12.652Z,100.00
2018-09-02T22:15:42.841Z,100.00
2018-09-02T22:18:12.268Z,100.00
2018-09-02T22:20:43.098Z,100.00
2018-09-02T22:23:12.633Z,100.00
2018-09-02T22:25:42.289Z,100.00
2018-09-02T22:28:11.820Z,100.00
2018-09-02T22:30:41.502Z,100.00
2018-09-02T22:33:10.953Z,100.00
2018-09-02T22:35:40.339Z,100.00
2018-09-02T22:38:09.690Z,100.00
2018-09-02T22:40:38.942Z,100.00
2018-09-02T22:43:08.427Z,100.00
2018-09-02T22:45:44.303Z,100.00
2018-09-02T22:48:14.222Z,100.00
2018-09-02T23:00:52.229Z,100.00
2018-09-02T23:03:21.504Z,100.00
2018-09-02T23:05:50.701Z,100.00
2018-09-02T23:08:19.900Z,100.00
2018-09-02T23:10:49.157Z,100.00
2018-09-02T23:13:18.292Z,100.00
2018-09-02T23:15:47.530Z,100.00
2018-09-02T23:18:16.799Z,100.00
2018-09-02T23:20:46.618Z,100.00
2018-09-02T23:23:15.991Z,100.00
2018-09-02T23:25:45.480Z,100.00
2018-09-02T23:28:14.685Z,100.00
2018-09-02T23:30:49.197Z,100.00
2018-09-02T23:33:18.498Z,100.00
2018-09-02T23:35:47.784Z,100.00
2018-09-02T23:38:17.000Z,100.00
2018-09-02T23:40:46.275Z,100.00
2018-09-02T23:43:15.599Z,100.00
2018-09-02T23:45:44.972Z,100.00
2018-09-02T23:48:14.269Z,100.00
2018-09-02T23:50:44.615Z,100.00
2018-09-02T23:53:13.946Z,100.00
2018-09-02T23:55:43.240Z,100.00
2018-09-02T23:58:12.590Z,100.00
